createdAt,value
2019-05-25T00:00:17.272Z,13.40
2019-05-25T00:02:43.697Z,13.40
2019-05-25T00:05:10.393Z,13.40
2019-05-25T00:07:38.652Z,13.30
2019-05-25T00:10:09.238Z,13.30
2019-05-25T00:12:38.380Z,13.30
2019-05-25T00:15:08.765Z,13.30
2019-05-25T00:17:37.150Z,13.30
2019-05-25T00:20:06.426Z,13.30
2019-05-25T00:22:32.825Z,13.30
2019-05-25T00:25:05.997Z,13.20
2019-05-25T00:27:34.326Z,13.20
2019-05-25T00:30:00.817Z,13.20
2019-05-25T00:32:29.074Z,13.30
2019-05-25T00:34:58.439Z,13.30
2019-05-25T00:37:26.671Z,13.20
2019-05-25T00:39:53.175Z,13.20
2019-05-25T00:42:22.359Z,13.20
2019-05-25T00:44:48.767Z,13.20
2019-05-25T00:47:17.594Z,13.20
2019-05-25T00:49:43.965Z,13.20
2019-05-25T00:52:10.285Z,13.20
2019-05-25T00:54:38.569Z,13.30
2019-05-25T00:57:07.214Z,13.30
2019-05-25T00:59:34.457Z,13.20
2019-05-25T01:02:00.840Z,13.30
2019-05-25T01:04:32.640Z,13.30
2019-05-25T01:07:05.389Z,13.30
2019-05-25T01:09:33.638Z,13.40
2019-05-25T01:12:00.055Z,13.50
2019-05-25T01:14:26.571Z,13.60
2019-05-25T01:16:54.930Z,13.70
2019-05-25T01:19:21.135Z,13.70
2019-05-25T01:21:49.494Z,13.70
2019-05-25T01:24:17.790Z,13.60
2019-05-25T01:26:46.057Z,13.60
2019-05-25T01:29:12.919Z,13.50
2019-05-25T01:31:39.266Z,13.60
2019-05-25T01:34:13.026Z,13.60
2019-05-25T01:36:40.463Z,13.60
2019-05-25T01:39:08.788Z,13.60
2019-05-25T01:41:35.176Z,13.60
2019-05-25T01:44:02.644Z,13.60
2019-05-25T01:46:32.052Z,13.70
2019-05-25T01:49:02.043Z,13.70
2019-05-25T01:51:31.080Z,13.70
2019-05-25T01:53:59.747Z,13.70
2019-05-25T01:56:26.087Z,13.70
2019-05-25T01:58:55.376Z,13.80
2019-05-25T02:01:23.636Z,13.80
2019-05-25T02:03:54.159Z,13.80
2019-05-25T02:06:24.369Z,13.80
2019-05-25T02:08:53.872Z,13.80
2019-05-25T02:11:21.377Z,13.80
2019-05-25T02:13:47.798Z,13.80
2019-05-25T02:16:16.613Z,13.80
2019-05-25T02:18:45.708Z,13.70
2019-05-25T02:21:14.169Z,13.70
2019-05-25T02:23:40.581Z,13.60
2019-05-25T02:26:10.005Z,13.60
2019-05-25T02:28:36.423Z,13.40
2019-05-25T02:31:06.424Z,13.30
2019-05-25T02:33:35.269Z,13.00
2019-05-25T02:36:03.519Z,12.80
2019-05-25T02:38:29.927Z,12.70
2019-05-25T02:41:00.712Z,12.60
2019-05-25T02:43:24.435Z,12.50
2019-05-25T02:45:51.130Z,12.30
2019-05-25T02:48:20.390Z,12.30
2019-05-25T02:50:52.892Z,12.20
2019-05-25T02:53:21.514Z,12.10
2019-05-25T02:55:47.935Z,12.10
2019-05-25T02:58:16.434Z,12.10
2019-05-25T03:00:44.122Z,12.10
2019-05-25T03:03:10.424Z,12.00
2019-05-25T03:05:38.824Z,12.10
2019-05-25T03:08:05.227Z,12.10
2019-05-25T03:10:32.399Z,12.10
2019-05-25T03:13:02.444Z,12.10
2019-05-25T03:15:29.620Z,12.00
2019-05-25T03:17:57.851Z,12.10
2019-05-25T03:20:25.712Z,12.10
2019-05-25T03:22:51.940Z,12.10
2019-05-25T03:25:21.721Z,12.10
2019-05-25T03:27:58.142Z,12.10
2019-05-25T03:30:32.565Z,12.20
2019-05-25T03:32:58.033Z,12.30
2019-05-25T03:35:26.313Z,12.50
2019-05-25T03:37:54.541Z,12.50
2019-05-25T03:40:34.334Z,12.60
2019-05-25T03:43:04.715Z,12.60
2019-05-25T03:45:28.828Z,12.60
2019-05-25T03:47:55.130Z,12.70
2019-05-25T03:50:23.425Z,12.60
2019-05-25T03:52:49.803Z,12.70
2019-05-25T03:55:17.583Z,12.80
2019-05-25T03:57:45.812Z,12.90
2019-05-25T04:00:14.518Z,13.10
2019-05-25T04:02:43.736Z,13.20
2019-05-25T04:05:10.144Z,13.20
2019-05-25T04:07:39.636Z,13.30
2019-05-25T04:10:12.980Z,13.40
2019-05-25T04:12:39.345Z,13.50
2019-05-25T04:15:09.761Z,13.50
2019-05-25T04:17:35.106Z,13.70
2019-05-25T04:20:05.146Z,13.80
2019-05-25T04:22:31.590Z,13.90
2019-05-25T04:24:57.972Z,14.00
2019-05-25T04:27:29.063Z,14.20
2019-05-25T04:29:57.404Z,14.40
2019-05-25T04:32:23.737Z,14.50
2019-05-25T04:34:59.448Z,14.50
2019-05-25T04:37:24.823Z,14.50
2019-05-25T04:39:51.234Z,14.50
2019-05-25T04:42:17.575Z,14.40
2019-05-25T04:44:43.992Z,14.50
2019-05-25T04:47:26.453Z,14.60
2019-05-25T04:49:44.122Z,14.70
2019-05-25T04:52:10.891Z,14.70
2019-05-25T04:54:40.289Z,14.80
2019-05-25T04:57:08.771Z,15.00
2019-05-25T04:59:35.214Z,15.10
2019-05-25T05:02:01.634Z,15.20
2019-05-25T05:04:27.994Z,15.20
2019-05-25T05:06:56.372Z,15.20
2019-05-25T05:09:24.429Z,15.20
2019-05-25T05:11:55.031Z,15.40
2019-05-25T05:14:24.369Z,15.40
2019-05-25T05:16:54.749Z,15.40
2019-05-25T05:19:23.056Z,15.40
2019-05-25T05:21:53.584Z,15.40
2019-05-25T05:24:23.721Z,15.40
2019-05-25T05:26:55.613Z,15.60
2019-05-25T05:29:23.279Z,15.80
2019-05-25T05:31:55.670Z,15.80
2019-05-25T05:34:22.964Z,15.70
2019-05-25T05:36:53.376Z,15.50
2019-05-25T05:39:21.794Z,15.60
2019-05-25T05:41:59.016Z,15.80
2019-05-25T05:44:32.250Z,15.90
2019-05-25T05:47:00.891Z,16.20
2019-05-25T05:49:29.145Z,16.40
2019-05-25T05:51:59.234Z,16.60
2019-05-25T05:54:25.829Z,16.70
2019-05-25T05:56:52.200Z,16.90
2019-05-25T05:59:23.656Z,17.00
2019-05-25T06:01:51.835Z,17.20
2019-05-25T06:04:22.409Z,17.20
2019-05-25T06:06:52.797Z,17.20
2019-05-25T06:09:25.851Z,17.30
2019-05-25T06:11:56.645Z,17.50
2019-05-25T06:14:24.920Z,17.60
2019-05-25T06:16:57.566Z,17.70
2019-05-25T06:19:20.739Z,18.00
2019-05-25T06:21:49.284Z,17.90
2019-05-25T06:24:18.688Z,18.20
2019-05-25T06:26:47.897Z,18.30
2019-05-25T06:29:15.384Z,18.40
2019-05-25T06:31:41.883Z,18.60
2019-05-25T06:34:13.404Z,18.80
2019-05-25T06:36:41.657Z,18.90
2019-05-25T06:39:16.161Z,19.30
2019-05-25T06:41:40.013Z,19.80
2019-05-25T06:44:08.331Z,20.10
2019-05-25T06:46:39.644Z,20.60
2019-05-25T06:49:08.600Z,20.70
2019-05-25T06:51:34.978Z,21.20
2019-05-25T06:54:06.339Z,21.60
2019-05-25T06:56:34.755Z,21.80
2019-05-25T06:59:00.974Z,22.20
2019-05-25T07:01:30.232Z,22.30
2019-05-25T07:04:01.037Z,22.80
2019-05-25T07:06:28.624Z,22.90
2019-05-25T07:08:54.983Z,23.20
2019-05-25T07:11:23.293Z,23.40
2019-05-25T07:13:49.652Z,23.50
2019-05-25T07:16:18.284Z,23.50
2019-05-25T07:18:47.221Z,23.60
2019-05-25T07:21:13.679Z,23.50
2019-05-25T07:23:44.650Z,24.10
2019-05-25T07:26:13.146Z,24.00
2019-05-25T07:28:40.657Z,23.90
2019-05-25T07:31:08.996Z,24.00
2019-05-25T07:33:37.231Z,24.20
2019-05-25T07:36:08.891Z,24.30
2019-05-25T07:38:35.115Z,24.00
2019-05-25T07:41:05.521Z,23.80
2019-05-25T07:43:39.180Z,23.80
2019-05-25T07:46:05.623Z,24.20
2019-05-25T07:48:36.910Z,24.60
2019-05-25T07:51:04.331Z,25.00
2019-05-25T07:53:30.985Z,25.40
2019-05-25T07:55:57.372Z,25.40
2019-05-25T07:58:24.518Z,25.50
2019-05-25T08:00:53.240Z,25.00
2019-05-25T08:03:23.738Z,24.80
2019-05-25T08:05:50.093Z,24.90
2019-05-25T08:08:18.935Z,25.10
2019-05-25T08:10:47.211Z,25.10
2019-05-25T08:13:15.493Z,25.30
2019-05-25T08:15:45.474Z,25.50
2019-05-25T08:18:13.142Z,26.00
2019-05-25T08:20:39.681Z,26.50
2019-05-25T08:23:10.524Z,26.70
2019-05-25T08:25:38.223Z,26.80
2019-05-25T08:28:06.465Z,27.00
2019-05-25T08:30:32.834Z,27.10
2019-05-25T08:32:59.188Z,27.50
2019-05-25T08:35:25.601Z,27.60
2019-05-25T08:37:55.825Z,27.70
2019-05-25T08:40:22.174Z,27.40
2019-05-25T08:42:52.411Z,27.20
2019-05-25T08:45:21.149Z,27.20
2019-05-25T08:47:51.311Z,27.40
2019-05-25T08:50:19.852Z,27.50
2019-05-25T08:52:46.184Z,27.50
2019-05-25T08:55:15.291Z,27.50
2019-05-25T08:57:41.629Z,27.70
2019-05-25T09:00:09.743Z,27.90
2019-05-25T09:02:36.041Z,28.00
2019-05-25T09:05:08.185Z,27.90
2019-05-25T09:07:34.544Z,28.20
2019-05-25T09:10:02.828Z,28.10
2019-05-25T09:12:31.074Z,28.40
2019-05-25T09:15:00.474Z,27.80
2019-05-25T09:17:31.686Z,27.20
2019-05-25T09:19:58.111Z,26.80
2019-05-25T09:22:26.431Z,26.90
2019-05-25T09:24:55.208Z,27.30
2019-05-25T09:27:30.210Z,27.00
2019-05-25T09:29:58.503Z,26.50
2019-05-25T09:32:25.938Z,26.50
2019-05-25T09:34:53.375Z,27.00
2019-05-25T09:37:24.248Z,27.30
2019-05-25T09:39:53.425Z,27.30
2019-05-25T09:42:21.645Z,27.00
2019-05-25T09:44:49.980Z,27.10
2019-05-25T09:47:16.336Z,27.20
2019-05-25T09:49:42.738Z,27.40
2019-05-25T09:52:10.956Z,27.60
2019-05-25T09:54:37.404Z,27.20
2019-05-25T09:57:10.847Z,26.80
2019-05-25T09:59:34.949Z,26.80
2019-05-25T10:02:03.353Z,27.30
2019-05-25T10:04:31.706Z,27.50
2019-05-25T10:07:03.593Z,27.40
2019-05-25T10:09:31.230Z,27.60
2019-05-25T10:12:01.389Z,28.10
2019-05-25T10:14:27.755Z,28.20
2019-05-25T10:16:57.912Z,28.10
2019-05-25T10:19:25.945Z,28.60
2019-05-25T10:21:53.603Z,28.40
2019-05-25T10:24:23.824Z,27.70
2019-05-25T10:26:50.181Z,27.20
2019-05-25T10:29:16.721Z,26.90
2019-05-25T10:31:48.042Z,26.20
2019-05-25T10:34:14.334Z,26.10
2019-05-25T10:36:42.678Z,25.90
2019-05-25T10:39:09.179Z,25.60
2019-05-25T10:41:39.408Z,25.10
2019-05-25T10:44:10.542Z,24.50
2019-05-25T10:46:36.981Z,25.10
2019-05-25T10:49:03.419Z,25.90
2019-05-25T10:51:37.735Z,25.90
2019-05-25T10:53:59.966Z,25.40
2019-05-25T10:56:29.477Z,24.90
2019-05-25T10:58:59.742Z,24.60
2019-05-25T11:01:27.281Z,24.30
2019-05-25T11:03:56.676Z,23.90
2019-05-25T11:06:26.927Z,23.60
2019-05-25T11:08:55.292Z,23.90
2019-05-25T11:11:26.938Z,24.80
2019-05-25T11:13:56.270Z,25.80
2019-05-25T11:16:24.718Z,26.70
2019-05-25T11:18:53.031Z,26.80
2019-05-25T11:21:25.120Z,26.20
2019-05-25T11:23:53.413Z,26.30
2019-05-25T11:26:23.640Z,25.80
2019-05-25T11:28:52.098Z,26.40
2019-05-25T11:31:20.286Z,26.70
2019-05-25T11:33:46.678Z,26.80
2019-05-25T11:36:13.510Z,27.40
2019-05-25T11:38:41.794Z,27.80
2019-05-25T11:41:16.176Z,28.00
2019-05-25T11:43:42.587Z,27.80
2019-05-25T11:46:12.501Z,27.20
2019-05-25T11:48:40.754Z,26.90
2019-05-25T11:51:13.294Z,26.60
2019-05-25T11:53:41.557Z,25.70
2019-05-25T11:56:09.221Z,26.20
2019-05-25T11:58:46.933Z,26.60
2019-05-25T12:01:08.764Z,26.80
2019-05-25T12:03:37.185Z,26.20
2019-05-25T12:06:07.407Z,26.70
2019-05-25T12:08:34.120Z,27.10
2019-05-25T12:11:00.491Z,27.90
2019-05-25T12:13:35.035Z,28.50
2019-05-25T12:16:02.481Z,29.10
2019-05-25T12:18:29.471Z,29.20
2019-05-25T12:20:56.877Z,29.60
2019-05-25T12:23:23.265Z,29.80
2019-05-25T12:25:49.643Z,29.60
2019-05-25T12:28:16.039Z,28.90
2019-05-25T12:30:42.438Z,28.70
2019-05-25T12:33:11.898Z,28.90
2019-05-25T12:35:40.424Z,29.20
2019-05-25T12:38:06.926Z,29.70
2019-05-25T12:40:33.273Z,29.70
2019-05-25T12:43:01.555Z,29.80
2019-05-25T12:45:27.925Z,30.30
2019-05-25T12:47:54.336Z,29.90
2019-05-25T12:50:23.443Z,28.20
2019-05-25T12:52:52.002Z,27.10
2019-05-25T12:55:19.092Z,27.50
2019-05-25T12:57:49.596Z,27.20
2019-05-25T13:00:19.037Z,27.20
2019-05-25T13:02:45.392Z,27.70
2019-05-25T13:05:12.153Z,28.00
2019-05-25T13:07:40.680Z,28.20
2019-05-25T13:10:09.352Z,27.60
2019-05-25T13:12:39.642Z,27.00
2019-05-25T13:15:06.175Z,27.30
2019-05-25T13:17:32.577Z,27.70
2019-05-25T13:19:58.988Z,27.90
2019-05-25T13:22:30.237Z,28.10
2019-05-25T13:24:58.856Z,27.90
2019-05-25T13:27:26.290Z,27.50
2019-05-25T13:29:52.690Z,27.60
2019-05-25T13:32:20.935Z,27.70
2019-05-25T13:34:51.102Z,27.90
2019-05-25T13:37:17.923Z,28.30
2019-05-25T13:39:46.353Z,28.60
2019-05-25T13:42:24.527Z,28.80
2019-05-25T13:44:53.315Z,28.80
2019-05-25T13:47:24.721Z,28.70
2019-05-25T13:49:53.370Z,28.00
2019-05-25T13:52:21.652Z,27.40
2019-05-25T13:54:49.396Z,27.20
2019-05-25T13:57:18.077Z,27.00
2019-05-25T13:59:49.249Z,27.40
2019-05-25T14:02:21.820Z,27.30
2019-05-25T14:04:45.746Z,27.60
2019-05-25T14:07:17.110Z,27.40
2019-05-25T14:09:43.407Z,27.50
2019-05-25T14:12:13.639Z,26.90
2019-05-25T14:14:44.034Z,26.20
2019-05-25T14:17:10.099Z,26.70
2019-05-25T14:19:41.413Z,26.90
2019-05-25T14:22:09.455Z,26.50
2019-05-25T14:24:37.696Z,26.70
2019-05-25T14:27:11.905Z,26.90
2019-05-25T14:29:38.510Z,26.70
2019-05-25T14:32:04.876Z,26.40
2019-05-25T14:34:39.026Z,25.50
2019-05-25T14:37:11.323Z,24.90
2019-05-25T14:39:37.641Z,24.60
2019-05-25T14:42:07.003Z,24.20
2019-05-25T14:44:38.446Z,24.20
2019-05-25T14:47:08.278Z,24.00
2019-05-25T14:49:36.570Z,23.90
2019-05-25T14:52:05.932Z,23.90
2019-05-25T14:54:32.246Z,24.10
2019-05-25T14:57:02.606Z,24.10
2019-05-25T14:59:32.655Z,24.20
2019-05-25T15:02:02.441Z,23.60
2019-05-25T15:04:30.943Z,23.20
2019-05-25T15:06:57.378Z,23.30
2019-05-25T15:09:26.220Z,23.20
2019-05-25T15:11:54.004Z,23.20
2019-05-25T15:14:21.861Z,22.90
2019-05-25T15:16:48.204Z,22.60
2019-05-25T15:19:16.475Z,22.00
2019-05-25T15:21:43.010Z,21.80
2019-05-25T15:24:10.260Z,21.60
2019-05-25T15:26:38.850Z,21.50
2019-05-25T15:29:12.883Z,21.40
2019-05-25T15:31:48.184Z,21.10
2019-05-25T15:34:14.739Z,21.20
2019-05-25T15:36:42.518Z,21.30
2019-05-25T15:39:09.061Z,21.10
2019-05-25T15:41:37.379Z,21.10
2019-05-25T15:44:03.860Z,21.10
2019-05-25T15:46:36.401Z,21.00
2019-05-25T15:49:05.112Z,18.20
2019-05-25T15:51:36.233Z,20.70
2019-05-25T15:54:04.496Z,20.90
2019-05-25T15:56:33.486Z,22.20
2019-05-25T15:59:01.440Z,21.20
2019-05-25T16:01:32.989Z,21.30
2019-05-25T16:03:59.533Z,21.30
2019-05-25T16:06:29.743Z,21.30
2019-05-25T16:09:03.086Z,21.20
2019-05-25T16:11:32.394Z,21.10
2019-05-25T16:14:01.800Z,21.00
2019-05-25T16:16:31.132Z,20.90
2019-05-25T16:19:00.732Z,20.90
2019-05-25T16:21:29.227Z,20.70
2019-05-25T16:23:57.334Z,20.60
2019-05-25T16:26:23.738Z,20.50
2019-05-25T16:28:53.380Z,20.30
2019-05-25T16:31:19.875Z,20.10
2019-05-25T16:33:47.313Z,20.10
2019-05-25T16:36:16.774Z,19.90
2019-05-25T16:38:44.174Z,19.90
2019-05-25T16:41:12.572Z,19.90
2019-05-25T16:43:41.114Z,19.70
2019-05-25T16:46:08.875Z,19.60
2019-05-25T16:48:37.231Z,19.50
2019-05-25T16:51:03.840Z,19.50
2019-05-25T16:53:32.459Z,19.50
2019-05-25T16:56:04.701Z,19.50
2019-05-25T16:58:33.745Z,19.20
2019-05-25T17:01:03.999Z,19.30
2019-05-25T17:03:30.316Z,19.30
2019-05-25T17:05:58.232Z,19.30
2019-05-25T17:08:24.650Z,19.20
2019-05-25T17:10:51.866Z,19.10
2019-05-25T17:13:18.244Z,19.00
2019-05-25T17:15:49.570Z,18.90
2019-05-25T17:18:19.925Z,18.90
2019-05-25T17:20:48.802Z,18.70
2019-05-25T17:23:15.315Z,18.80
2019-05-25T17:25:44.187Z,18.60
2019-05-25T17:28:12.409Z,18.50
2019-05-25T17:30:41.687Z,18.30
2019-05-25T17:33:14.431Z,18.40
2019-05-25T17:35:42.756Z,18.50
2019-05-25T17:38:15.143Z,18.50
2019-05-25T17:40:41.676Z,18.30
2019-05-25T17:43:08.146Z,18.20
2019-05-25T17:45:34.592Z,18.30
2019-05-25T17:48:06.378Z,18.30
2019-05-25T17:50:36.759Z,18.20
2019-05-25T17:53:07.935Z,18.10
2019-05-25T17:55:37.363Z,18.10
2019-05-25T17:58:09.663Z,18.10
2019-05-25T18:00:44.376Z,17.90
2019-05-25T18:05:42.564Z,18.20
2019-05-25T18:08:11.030Z,17.50
2019-05-25T18:10:51.940Z,17.50
2019-05-25T18:15:36.138Z,17.10
2019-05-25T18:18:04.246Z,16.80
2019-05-25T18:20:33.807Z,17.00
2019-05-25T18:23:05.330Z,16.80
2019-05-25T18:25:33.795Z,16.80
2019-05-25T18:28:02.661Z,16.90
2019-05-25T18:30:29.187Z,16.70
2019-05-25T18:32:55.641Z,16.70
2019-05-25T18:35:22.027Z,17.10
2019-05-25T18:40:19.784Z,17.20
2019-05-25T18:42:53.910Z,16.10
2019-05-25T18:45:20.387Z,16.10
2019-05-25T18:47:50.606Z,16.10
2019-05-25T18:50:17.267Z,15.60
2019-05-25T18:52:48.331Z,16.00
2019-05-25T18:55:18.383Z,15.90
2019-05-25T18:57:46.754Z,15.90
2019-05-25T19:00:13.666Z,15.80
2019-05-25T19:02:44.392Z,15.70
2019-05-25T19:05:11.046Z,15.40
2019-05-25T19:07:37.754Z,15.50
2019-05-25T19:10:07.873Z,15.20
2019-05-25T19:12:36.282Z,15.40
2019-05-25T19:15:05.993Z,15.30
2019-05-25T19:17:32.774Z,15.50
2019-05-25T19:20:03.123Z,15.10
2019-05-25T19:22:30.010Z,15.20
2019-05-25T19:25:02.494Z,15.30
2019-05-25T19:27:31.448Z,15.40
2019-05-25T19:30:02.917Z,15.10
2019-05-25T19:32:40.163Z,15.10
2019-05-25T19:35:17.296Z,14.70
2019-05-25T19:37:48.953Z,15.00
2019-05-25T19:40:16.021Z,15.30
2019-05-25T19:42:44.551Z,14.20
2019-05-25T19:45:11.811Z,15.00
2019-05-25T19:47:42.762Z,15.10
2019-05-25T19:50:10.153Z,14.70
2019-05-25T19:52:37.523Z,13.90
2019-05-25T19:55:11.462Z,14.70
2019-05-25T19:57:44.883Z,14.80
2019-05-25T20:00:13.733Z,14.90
2019-05-25T20:05:17.132Z,14.50
2019-05-25T20:07:55.027Z,14.50
2019-05-25T20:17:09.868Z,14.20
2019-05-25T20:22:54.432Z,14.40
2019-05-25T20:32:58.464Z,14.20
2019-05-25T21:00:54.217Z,13.40
2019-05-25T21:13:38.263Z,13.20
